Venango, NE (69168)

9:40 AM MDT on July 28, 2016 (GMT -0600)
Northwest Chase County | | Change Station

Elev 3494 ft 40.67 °N, 101.91 °W | Updated 13 minutes ago

Scattered Clouds
Scattered Clouds
64.9 °F
Feels Like 64.9 °F
N
12.5
Wind Variable Wind from ESE

Today
High -- | Low -- °F
--% Chance of Precip.
Yesterday
High -- | Low -- °F
Precip. -- in
Pressure 30.10 in
Visibility 10.0 miles
Clouds Scattered Clouds 11000 ft
Dew Point 62 °F
Humidity 91%
Rainfall 0.45 in
Snow Depth Not available.
5:40 AM 8:07 PM
Waning Crescent, 31% visible
METAR KOGA 281535Z AUTO 10014G21KT 10SM SCT110 20/16 A3010 RMK AO2 LTG DSNT E AND NW T02000160
Pressure 30.10 in
Visibility 10.0 miles
Clouds Scattered Clouds 11000 ft
Dew Point 62 °F
Humidity 91%
Rainfall 0.45 in
Snow Depth Not available.
5:40 AM 8:07 PM
Waning Crescent, 31% visible
METAR KOGA 281535Z AUTO 10014G21KT 10SM SCT110 20/16 A3010 RMK AO2 LTG DSNT E AND NW T02000160

10-Day Weather Forecast

Almanac

Astronomy

Jul. 28, 2016 Rise Set
Actual Time
Civil Twilight
Nautical Twilight
Astronomical Twilight
Moon
Length of Visible Light
Length of Day
Tomorrow will be .
, % of the Moon is Illuminated

Today's Extremes

State Highs State Lows

Community

WunderPhotos

Upload Photos

1,928,129 photos uploaded!

WunderBlog® & News

Nearby

Air Quality

  Air Quality AQ Index Pollutant
Not available.

Snow Depth

Station Depth Elevation

Earthquake Activity

City Distance Mag. Time & Date
Minimum magnitude displayed is 2.5.

Coastal Water Temperatures

Place Temperature

Stations

Nearby Weather Stations

Station Location Temp. Windchill Dew Point Humidity Wind Precip. Elev Updated Type
                   

Watches & Warnings

There are currently no watches in effect.